sensor_id;sensor_type;location;lat;lon;timestamp;P1;durP1;ratioP1;P2;durP2;ratioP2
20441;SDS011;10380;52.102;20.614;2023-08-06T00:01:48;5.82;;;4.75;;
20441;SDS011;10380;52.102;20.614;2023-08-06T00:04:16;5.55;;;3.88;;
20441;SDS011;10380;52.102;20.614;2023-08-06T00:06:43;7.25;;;5.10;;
20441;SDS011;10380;52.102;20.614;2023-08-06T00:09:10;4.85;;;4.35;;
20441;SDS011;10380;52.102;20.614;2023-08-06T00:11:37;6.60;;;4.72;;
20441;SDS011;10380;52.102;20.614;2023-08-06T00:14:03;7.13;;;5.43;;
20441;SDS011;10380;52.102;20.614;2023-08-06T00:16:30;6.40;;;5.25;;
20441;SDS011;10380;52.102;20.614;2023-08-06T00:18:57;6.68;;;5.05;;
20441;SDS011;10380;52.102;20.614;2023-08-06T00:21:24;6.38;;;5.22;;
20441;SDS011;10380;52.102;20.614;2023-08-06T00:23:51;6.30;;;5.63;;
20441;SDS011;10380;52.102;20.614;2023-08-06T00:26:18;8.23;;;5.07;;
20441;SDS011;10380;52.102;20.614;2023-08-06T00:28:46;6.18;;;5.30;;
20441;SDS011;10380;52.102;20.614;2023-08-06T00:31:13;8.32;;;6.10;;
20441;SDS011;10380;52.102;20.614;2023-08-06T00:33:40;7.90;;;5.72;;
20441;SDS011;10380;52.102;20.614;2023-08-06T00:36:07;7.07;;;5.85;;
20441;SDS011;10380;52.102;20.614;2023-08-06T00:38:34;7.15;;;4.95;;
20441;SDS011;10380;52.102;20.614;2023-08-06T00:41:01;6.80;;;5.10;;
20441;SDS011;10380;52.102;20.614;2023-08-06T00:43:28;6.93;;;5.55;;
20441;SDS011;10380;52.102;20.614;2023-08-06T00:45:55;6.15;;;4.90;;
20441;SDS011;10380;52.102;20.614;2023-08-06T00:48:22;7.60;;;6.00;;
20441;SDS011;10380;52.102;20.614;2023-08-06T00:50:49;7.38;;;6.13;;
20441;SDS011;10380;52.102;20.614;2023-08-06T00:53:16;9.82;;;6.28;;
20441;SDS011;10380;52.102;20.614;2023-08-06T00:55:43;10.73;;;7.57;;
20441;SDS011;10380;52.102;20.614;2023-08-06T00:58:12;10.73;;;7.60;;
20441;SDS011;10380;52.102;20.614;2023-08-06T01:00:40;11.23;;;8.40;;
20441;SDS011;10380;52.102;20.614;2023-08-06T01:03:08;14.48;;;8.20;;
20441;SDS011;10380;52.102;20.614;2023-08-06T01:05:35;16.13;;;9.90;;
20441;SDS011;10380;52.102;20.614;2023-08-06T01:13:32;17.80;;;11.13;;
20441;SDS011;10380;52.102;20.614;2023-08-06T01:16:14;15.27;;;10.85;;
20441;SDS011;10380;52.102;20.614;2023-08-06T01:18:46;15.10;;;10.55;;
20441;SDS011;10380;52.102;20.614;2023-08-06T01:21:16;15.65;;;10.90;;
20441;SDS011;10380;52.102;20.614;2023-08-06T01:23:44;14.75;;;11.02;;
20441;SDS011;10380;52.102;20.614;2023-08-06T01:26:24;16.08;;;10.77;;
20441;SDS011;10380;52.102;20.614;2023-08-06T01:29:13;15.32;;;11.32;;
20441;SDS011;10380;52.102;20.614;2023-08-06T01:31:46;13.18;;;10.70;;
20441;SDS011;10380;52.102;20.614;2023-08-06T01:34:19;15.10;;;10.48;;
20441;SDS011;10380;52.102;20.614;2023-08-06T01:36:48;15.35;;;10.50;;
20441;SDS011;10380;52.102;20.614;2023-08-06T01:39:17;16.95;;;11.57;;
20441;SDS011;10380;52.102;20.614;2023-08-06T01:41:47;13.57;;;11.05;;
20441;SDS011;10380;52.102;20.614;2023-08-06T01:44:15;14.77;;;11.05;;
20441;SDS011;10380;52.102;20.614;2023-08-06T01:46:43;16.38;;;11.43;;
20441;SDS011;10380;52.102;20.614;2023-08-06T01:49:10;16.67;;;11.35;;
20441;SDS011;10380;52.102;20.614;2023-08-06T01:51:37;15.50;;;11.88;;
20441;SDS011;10380;52.102;20.614;2023-08-06T01:54:04;13.40;;;10.50;;
20441;SDS011;10380;52.102;20.614;2023-08-06T01:56:31;16.83;;;11.57;;
20441;SDS011;10380;52.102;20.614;2023-08-06T01:58:58;18.48;;;11.45;;
20441;SDS011;10380;52.102;20.614;2023-08-06T02:01:27;14.73;;;11.43;;
20441;SDS011;10380;52.102;20.614;2023-08-06T02:03:53;14.48;;;10.85;;
20441;SDS011;10380;52.102;20.614;2023-08-06T02:06:20;15.63;;;12.93;;
20441;SDS011;10380;52.102;20.614;2023-08-06T02:08:47;18.88;;;13.20;;
20441;SDS011;10380;52.102;20.614;2023-08-06T02:11:14;15.40;;;12.00;;
20441;SDS011;10380;52.102;20.614;2023-08-06T02:13:41;17.02;;;13.10;;
20441;SDS011;10380;52.102;20.614;2023-08-06T02:16:08;16.83;;;12.18;;
20441;SDS011;10380;52.102;20.614;2023-08-06T02:18:35;17.52;;;12.18;;
20441;SDS011;10380;52.102;20.614;2023-08-06T02:21:02;19.00;;;12.80;;
20441;SDS011;10380;52.102;20.614;2023-08-06T02:23:29;14.70;;;11.82;;
20441;SDS011;10380;52.102;20.614;2023-08-06T02:26:00;17.48;;;12.77;;
20441;SDS011;10380;52.102;20.614;2023-08-06T02:28:30;18.23;;;13.38;;
20441;SDS011;10380;52.102;20.614;2023-08-06T02:30:58;19.35;;;13.07;;
20441;SDS011;10380;52.102;20.614;2023-08-06T02:33:26;17.20;;;12.50;;
20441;SDS011;10380;52.102;20.614;2023-08-06T02:35:59;19.75;;;14.52;;
20441;SDS011;10380;52.102;20.614;2023-08-06T02:38:30;20.95;;;14.38;;
20441;SDS011;10380;52.102;20.614;2023-08-06T02:41:01;19.08;;;13.65;;
20441;SDS011;10380;52.102;20.614;2023-08-06T02:43:30;17.58;;;13.38;;
20441;SDS011;10380;52.102;20.614;2023-08-06T02:45:57;18.30;;;13.07;;
20441;SDS011;10380;52.102;20.614;2023-08-06T02:48:25;22.02;;;14.75;;
20441;SDS011;10380;52.102;20.614;2023-08-06T02:50:52;20.55;;;15.35;;
20441;SDS011;10380;52.102;20.614;2023-08-06T02:53:23;22.45;;;13.65;;
20441;SDS011;10380;52.102;20.614;2023-08-06T02:55:49;19.88;;;14.32;;
20441;SDS011;10380;52.102;20.614;2023-08-06T02:58:17;17.67;;;14.35;;
20441;SDS011;10380;52.102;20.614;2023-08-06T03:03:30;18.45;;;13.88;;
20441;SDS011;10380;52.102;20.614;2023-08-06T03:05:58;16.23;;;13.65;;
20441;SDS011;10380;52.102;20.614;2023-08-06T03:08:25;24.05;;;14.32;;
20441;SDS011;10380;52.102;20.614;2023-08-06T03:10:52;18.25;;;13.25;;
20441;SDS011;10380;52.102;20.614;2023-08-06T03:13:20;19.40;;;13.45;;
20441;SDS011;10380;52.102;20.614;2023-08-06T03:15:54;17.50;;;14.13;;
20441;SDS011;10380;52.102;20.614;2023-08-06T03:18:25;19.65;;;13.63;;
20441;SDS011;10380;52.102;20.614;2023-08-06T03:20:52;18.13;;;14.00;;
20441;SDS011;10380;52.102;20.614;2023-08-06T03:23:20;19.20;;;12.20;;
20441;SDS011;10380;52.102;20.614;2023-08-06T03:25:47;21.05;;;13.57;;
20441;SDS011;10380;52.102;20.614;2023-08-06T03:28:14;17.77;;;13.90;;
20441;SDS011;10380;52.102;20.614;2023-08-06T03:30:41;18.17;;;13.52;;
20441;SDS011;10380;52.102;20.614;2023-08-06T03:33:08;18.70;;;13.13;;
20441;SDS011;10380;52.102;20.614;2023-08-06T03:35:35;18.95;;;12.20;;
20441;SDS011;10380;52.102;20.614;2023-08-06T03:38:02;15.85;;;13.68;;
20441;SDS011;10380;52.102;20.614;2023-08-06T03:40:29;19.80;;;13.73;;
20441;SDS011;10380;52.102;20.614;2023-08-06T03:42:56;15.60;;;12.80;;
20441;SDS011;10380;52.102;20.614;2023-08-06T03:45:23;17.95;;;13.90;;
20441;SDS011;10380;52.102;20.614;2023-08-06T03:47:50;16.90;;;13.68;;
20441;SDS011;10380;52.102;20.614;2023-08-06T03:50:16;18.00;;;13.15;;
20441;SDS011;10380;52.102;20.614;2023-08-06T03:52:43;18.50;;;13.57;;
20441;SDS011;10380;52.102;20.614;2023-08-06T03:55:10;17.42;;;13.50;;
20441;SDS011;10380;52.102;20.614;2023-08-06T03:57:37;15.40;;;13.75;;
20441;SDS011;10380;52.102;20.614;2023-08-06T04:00:04;15.85;;;13.25;;
20441;SDS011;10380;52.102;20.614;2023-08-06T04:02:31;16.52;;;13.55;;
20441;SDS011;10380;52.102;20.614;2023-08-06T04:04:58;17.10;;;13.07;;
20441;SDS011;10380;52.102;20.614;2023-08-06T04:07:26;19.33;;;13.07;;
20441;SDS011;10380;52.102;20.614;2023-08-06T04:10:00;17.08;;;13.20;;
20441;SDS011;10380;52.102;20.614;2023-08-06T04:12:29;16.98;;;13.65;;
20441;SDS011;10380;52.102;20.614;2023-08-06T04:14:57;18.48;;;14.88;;
20441;SDS011;10380;52.102;20.614;2023-08-06T04:17:25;15.73;;;13.43;;
20441;SDS011;10380;52.102;20.614;2023-08-06T04:19:53;17.63;;;14.25;;
20441;SDS011;10380;52.102;20.614;2023-08-06T04:22:21;17.65;;;15.07;;
20441;SDS011;10380;52.102;20.614;2023-08-06T04:24:48;17.42;;;14.40;;
20441;SDS011;10380;52.102;20.614;2023-08-06T04:27:15;19.85;;;14.48;;
20441;SDS011;10380;52.102;20.614;2023-08-06T04:29:43;19.50;;;14.38;;
20441;SDS011;10380;52.102;20.614;2023-08-06T04:32:10;21.48;;;14.80;;
20441;SDS011;10380;52.102;20.614;2023-08-06T04:34:37;18.60;;;15.07;;
20441;SDS011;10380;52.102;20.614;2023-08-06T04:37:04;21.20;;;15.50;;
20441;SDS011;10380;52.102;20.614;2023-08-06T04:39:31;20.02;;;16.08;;
20441;SDS011;10380;52.102;20.614;2023-08-06T04:41:58;19.45;;;15.45;;
20441;SDS011;10380;52.102;20.614;2023-08-06T04:44:25;19.92;;;15.25;;
20441;SDS011;10380;52.102;20.614;2023-08-06T04:46:52;19.25;;;14.70;;
20441;SDS011;10380;52.102;20.614;2023-08-06T04:49:20;20.27;;;15.80;;
20441;SDS011;10380;52.102;20.614;2023-08-06T04:51:47;22.88;;;17.17;;
20441;SDS011;10380;52.102;20.614;2023-08-06T04:54:14;20.95;;;15.77;;
20441;SDS011;10380;52.102;20.614;2023-08-06T04:56:41;24.27;;;16.38;;
20441;SDS011;10380;52.102;20.614;2023-08-06T04:59:08;19.70;;;15.85;;
20441;SDS011;10380;52.102;20.614;2023-08-06T05:01:35;19.30;;;15.55;;
20441;SDS011;10380;52.102;20.614;2023-08-06T05:04:02;23.65;;;17.85;;
20441;SDS011;10380;52.102;20.614;2023-08-06T05:06:30;21.10;;;17.00;;
20441;SDS011;10380;52.102;20.614;2023-08-06T05:08:56;20.80;;;17.02;;
20441;SDS011;10380;52.102;20.614;2023-08-06T05:11:24;21.08;;;17.00;;
20441;SDS011;10380;52.102;20.614;2023-08-06T05:13:51;19.75;;;17.60;;
20441;SDS011;10380;52.102;20.614;2023-08-06T05:16:18;22.65;;;17.67;;
20441;SDS011;10380;52.102;20.614;2023-08-06T05:18:44;30.63;;;17.98;;
20441;SDS011;10380;52.102;20.614;2023-08-06T05:21:11;21.65;;;18.08;;
20441;SDS011;10380;52.102;20.614;2023-08-06T05:23:38;24.33;;;17.65;;
20441;SDS011;10380;52.102;20.614;2023-08-06T05:26:05;23.38;;;17.63;;
20441;SDS011;10380;52.102;20.614;2023-08-06T05:28:32;23.85;;;17.25;;
20441;SDS011;10380;52.102;20.614;2023-08-06T05:31:06;20.48;;;17.60;;
20441;SDS011;10380;52.102;20.614;2023-08-06T05:33:33;19.20;;;17.05;;
20441;SDS011;10380;52.102;20.614;2023-08-06T05:35:59;23.90;;;17.73;;
20441;SDS011;10380;52.102;20.614;2023-08-06T05:38:26;19.67;;;17.55;;
20441;SDS011;10380;52.102;20.614;2023-08-06T05:40:53;21.05;;;18.13;;
20441;SDS011;10380;52.102;20.614;2023-08-06T05:43:21;22.80;;;18.48;;
20441;SDS011;10380;52.102;20.614;2023-08-06T05:45:49;21.02;;;17.65;;
20441;SDS011;10380;52.102;20.614;2023-08-06T05:48:16;22.50;;;17.73;;
20441;SDS011;10380;52.102;20.614;2023-08-06T05:50:43;19.50;;;17.20;;
20441;SDS011;10380;52.102;20.614;2023-08-06T05:53:10;20.15;;;16.65;;
20441;SDS011;10380;52.102;20.614;2023-08-06T05:55:38;18.80;;;16.08;;
20441;SDS011;10380;52.102;20.614;2023-08-06T05:58:06;16.77;;;14.82;;
20441;SDS011;10380;52.102;20.614;2023-08-06T06:00:32;17.55;;;15.75;;
20441;SDS011;10380;52.102;20.614;2023-08-06T06:03:01;18.73;;;16.80;;
20441;SDS011;10380;52.102;20.614;2023-08-06T06:05:29;17.27;;;14.38;;
20441;SDS011;10380;52.102;20.614;2023-08-06T06:07:55;18.60;;;15.68;;
20441;SDS011;10380;52.102;20.614;2023-08-06T06:10:23;19.23;;;15.73;;
20441;SDS011;10380;52.102;20.614;2023-08-06T06:12:50;17.55;;;14.85;;
20441;SDS011;10380;52.102;20.614;2023-08-06T06:15:17;16.30;;;14.25;;
20441;SDS011;10380;52.102;20.614;2023-08-06T06:17:44;17.55;;;15.15;;
20441;SDS011;10380;52.102;20.614;2023-08-06T06:20:11;18.35;;;15.98;;
20441;SDS011;10380;52.102;20.614;2023-08-06T06:22:38;17.65;;;15.50;;
20441;SDS011;10380;52.102;20.614;2023-08-06T06:25:05;18.60;;;14.65;;
20441;SDS011;10380;52.102;20.614;2023-08-06T06:27:33;16.65;;;14.77;;
20441;SDS011;10380;52.102;20.614;2023-08-06T06:29:59;17.10;;;15.45;;
20441;SDS011;10380;52.102;20.614;2023-08-06T06:32:26;17.23;;;15.52;;
20441;SDS011;10380;52.102;20.614;2023-08-06T06:34:53;19.17;;;15.48;;
20441;SDS011;10380;52.102;20.614;2023-08-06T06:37:20;19.98;;;15.25;;
20441;SDS011;10380;52.102;20.614;2023-08-06T06:39:47;16.90;;;15.07;;
20441;SDS011;10380;52.102;20.614;2023-08-06T06:42:14;17.02;;;14.55;;
20441;SDS011;10380;52.102;20.614;2023-08-06T06:44:41;18.60;;;15.32;;
20441;SDS011;10380;52.102;20.614;2023-08-06T06:47:08;15.15;;;13.68;;
20441;SDS011;10380;52.102;20.614;2023-08-06T06:49:35;17.27;;;14.77;;
20441;SDS011;10380;52.102;20.614;2023-08-06T06:52:02;21.55;;;16.05;;
20441;SDS011;10380;52.102;20.614;2023-08-06T06:54:29;16.75;;;14.95;;
20441;SDS011;10380;52.102;20.614;2023-08-06T06:56:56;16.90;;;15.20;;
20441;SDS011;10380;52.102;20.614;2023-08-06T06:59:23;20.73;;;15.75;;
20441;SDS011;10380;52.102;20.614;2023-08-06T07:01:50;16.35;;;14.65;;
20441;SDS011;10380;52.102;20.614;2023-08-06T07:04:18;16.80;;;14.60;;
20441;SDS011;10380;52.102;20.614;2023-08-06T07:06:44;16.33;;;14.63;;
20441;SDS011;10380;52.102;20.614;2023-08-06T07:09:12;17.38;;;15.45;;
20441;SDS011;10380;52.102;20.614;2023-08-06T07:11:38;17.95;;;16.02;;
20441;SDS011;10380;52.102;20.614;2023-08-06T07:14:05;16.05;;;14.45;;
20441;SDS011;10380;52.102;20.614;2023-08-06T07:16:34;17.67;;;15.65;;
20441;SDS011;10380;52.102;20.614;2023-08-06T07:19:01;16.17;;;14.60;;
20441;SDS011;10380;52.102;20.614;2023-08-06T07:21:28;16.42;;;14.60;;
20441;SDS011;10380;52.102;20.614;2023-08-06T07:23:54;17.00;;;15.30;;
20441;SDS011;10380;52.102;20.614;2023-08-06T07:26:24;18.85;;;16.15;;
20441;SDS011;10380;52.102;20.614;2023-08-06T07:28:51;17.60;;;15.80;;
20441;SDS011;10380;52.102;20.614;2023-08-06T07:31:18;17.35;;;15.60;;
20441;SDS011;10380;52.102;20.614;2023-08-06T07:33:45;16.90;;;15.02;;
20441;SDS011;10380;52.102;20.614;2023-08-06T07:36:13;17.73;;;14.65;;
20441;SDS011;10380;52.102;20.614;2023-08-06T07:38:41;16.45;;;14.95;;
20441;SDS011;10380;52.102;20.614;2023-08-06T07:41:08;18.00;;;15.50;;
20441;SDS011;10380;52.102;20.614;2023-08-06T07:43:35;16.90;;;15.07;;
20441;SDS011;10380;52.102;20.614;2023-08-06T07:46:03;16.35;;;14.65;;
20441;SDS011;10380;52.102;20.614;2023-08-06T07:48:30;18.17;;;14.70;;
20441;SDS011;10380;52.102;20.614;2023-08-06T07:50:57;18.23;;;14.63;;
20441;SDS011;10380;52.102;20.614;2023-08-06T07:53:25;16.10;;;14.52;;
20441;SDS011;10380;52.102;20.614;2023-08-06T07:55:56;17.45;;;15.02;;
20441;SDS011;10380;52.102;20.614;2023-08-06T07:58:24;17.55;;;14.25;;
20441;SDS011;10380;52.102;20.614;2023-08-06T08:00:51;15.95;;;13.38;;
20441;SDS011;10380;52.102;20.614;2023-08-06T08:03:18;15.73;;;13.50;;
20441;SDS011;10380;52.102;20.614;2023-08-06T08:05:46;16.50;;;13.25;;
20441;SDS011;10380;52.102;20.614;2023-08-06T08:08:13;14.73;;;13.30;;
20441;SDS011;10380;52.102;20.614;2023-08-06T08:10:40;14.05;;;12.63;;
20441;SDS011;10380;52.102;20.614;2023-08-06T08:13:08;19.02;;;13.20;;
20441;SDS011;10380;52.102;20.614;2023-08-06T08:15:35;17.17;;;13.23;;
20441;SDS011;10380;52.102;20.614;2023-08-06T08:18:02;18.48;;;12.82;;
20441;SDS011;10380;52.102;20.614;2023-08-06T08:20:29;17.67;;;12.70;;
20441;SDS011;10380;52.102;20.614;2023-08-06T08:22:59;15.68;;;13.15;;
20441;SDS011;10380;52.102;20.614;2023-08-06T08:25:26;16.02;;;12.90;;
20441;SDS011;10380;52.102;20.614;2023-08-06T08:27:57;16.00;;;13.60;;
20441;SDS011;10380;52.102;20.614;2023-08-06T08:30:24;15.05;;;12.82;;
20441;SDS011;10380;52.102;20.614;2023-08-06T08:32:52;13.15;;;11.65;;
20441;SDS011;10380;52.102;20.614;2023-08-06T08:35:19;15.00;;;13.40;;
20441;SDS011;10380;52.102;20.614;2023-08-06T08:37:46;15.05;;;12.80;;
20441;SDS011;10380;52.102;20.614;2023-08-06T08:40:13;14.70;;;12.85;;
20441;SDS011;10380;52.102;20.614;2023-08-06T08:42:41;17.00;;;14.32;;
20441;SDS011;10380;52.102;20.614;2023-08-06T08:45:12;14.85;;;13.32;;
20441;SDS011;10380;52.102;20.614;2023-08-06T08:47:44;14.95;;;13.38;;
20441;SDS011;10380;52.102;20.614;2023-08-06T08:50:13;15.48;;;12.98;;
20441;SDS011;10380;52.102;20.614;2023-08-06T08:52:41;15.18;;;13.57;;
20441;SDS011;10380;52.102;20.614;2023-08-06T08:55:12;15.77;;;13.25;;
20441;SDS011;10380;52.102;20.614;2023-08-06T08:57:41;14.10;;;12.70;;
20441;SDS011;10380;52.102;20.614;2023-08-06T09:00:08;16.75;;;15.00;;
20441;SDS011;10380;52.102;20.614;2023-08-06T09:02:36;17.08;;;13.10;;
20441;SDS011;10380;52.102;20.614;2023-08-06T09:05:05;14.38;;;12.85;;
20441;SDS011;10380;52.102;20.614;2023-08-06T09:07:35;14.05;;;12.68;;
20441;SDS011;10380;52.102;20.614;2023-08-06T09:10:09;14.90;;;13.48;;
20441;SDS011;10380;52.102;20.614;2023-08-06T09:12:38;14.55;;;11.75;;
20441;SDS011;10380;52.102;20.614;2023-08-06T09:15:05;14.35;;;12.77;;
20441;SDS011;10380;52.102;20.614;2023-08-06T09:17:32;15.43;;;12.43;;
20441;SDS011;10380;52.102;20.614;2023-08-06T09:20:08;13.85;;;12.18;;
20441;SDS011;10380;52.102;20.614;2023-08-06T09:22:37;20.30;;;12.40;;
20441;SDS011;10380;52.102;20.614;2023-08-06T09:25:06;13.50;;;12.10;;
20441;SDS011;10380;52.102;20.614;2023-08-06T09:27:36;13.88;;;12.52;;
20441;SDS011;10380;52.102;20.614;2023-08-06T09:30:05;13.68;;;12.23;;
20441;SDS011;10380;52.102;20.614;2023-08-06T09:32:51;15.18;;;12.57;;
20441;SDS011;10380;52.102;20.614;2023-08-06T09:35:18;14.93;;;12.38;;
20441;SDS011;10380;52.102;20.614;2023-08-06T09:37:45;13.55;;;12.15;;
20441;SDS011;10380;52.102;20.614;2023-08-06T09:40:27;14.40;;;12.30;;
20441;SDS011;10380;52.102;20.614;2023-08-06T09:42:56;14.45;;;12.02;;
20441;SDS011;10380;52.102;20.614;2023-08-06T09:45:32;12.95;;;11.65;;
20441;SDS011;10380;52.102;20.614;2023-08-06T09:48:04;12.60;;;11.30;;
20441;SDS011;10380;52.102;20.614;2023-08-06T09:50:33;17.27;;;11.95;;
20441;SDS011;10380;52.102;20.614;2023-08-06T09:53:03;17.17;;;11.38;;
20441;SDS011;10380;52.102;20.614;2023-08-06T09:55:32;12.23;;;11.05;;
20441;SDS011;10380;52.102;20.614;2023-08-06T09:57:59;14.82;;;11.05;;
20441;SDS011;10380;52.102;20.614;2023-08-06T10:00:27;12.68;;;11.43;;
20441;SDS011;10380;52.102;20.614;2023-08-06T10:02:59;14.10;;;11.50;;
20441;SDS011;10380;52.102;20.614;2023-08-06T10:05:27;12.50;;;11.30;;
20441;SDS011;10380;52.102;20.614;2023-08-06T10:07:55;12.80;;;10.40;;
20441;SDS011;10380;52.102;20.614;2023-08-06T10:10:23;14.57;;;10.63;;
20441;SDS011;10380;52.102;20.614;2023-08-06T10:12:54;11.10;;;9.75;;
20441;SDS011;10380;52.102;20.614;2023-08-06T10:15:25;12.48;;;9.82;;
20441;SDS011;10380;52.102;20.614;2023-08-06T10:17:55;12.85;;;11.10;;
20441;SDS011;10380;52.102;20.614;2023-08-06T10:20:24;12.52;;;10.50;;
20441;SDS011;10380;52.102;20.614;2023-08-06T10:23:01;11.57;;;10.50;;
20441;SDS011;10380;52.102;20.614;2023-08-06T10:25:33;11.75;;;10.50;;
20441;SDS011;10380;52.102;20.614;2023-08-06T10:28:10;15.60;;;10.27;;
20441;SDS011;10380;52.102;20.614;2023-08-06T10:30:42;12.15;;;10.90;;
20441;SDS011;10380;52.102;20.614;2023-08-06T10:33:13;12.35;;;10.20;;
20441;SDS011;10380;52.102;20.614;2023-08-06T10:35:47;13.55;;;9.52;;
20441;SDS011;10380;52.102;20.614;2023-08-06T10:38:17;12.65;;;9.75;;
20441;SDS011;10380;52.102;20.614;2023-08-06T10:43:27;11.20;;;9.07;;
20441;SDS011;10380;52.102;20.614;2023-08-06T10:45:55;13.00;;;9.40;;
20441;SDS011;10380;52.102;20.614;2023-08-06T10:48:56;13.73;;;8.55;;
20441;SDS011;10380;52.102;20.614;2023-08-06T10:51:17;12.35;;;8.27;;
20441;SDS011;10380;52.102;20.614;2023-08-06T10:53:47;12.85;;;8.43;;
20441;SDS011;10380;52.102;20.614;2023-08-06T10:56:16;14.43;;;9.30;;
20441;SDS011;10380;52.102;20.614;2023-08-06T10:58:49;11.38;;;10.18;;
20441;SDS011;10380;52.102;20.614;2023-08-06T11:01:17;12.23;;;10.98;;
20441;SDS011;10380;52.102;20.614;2023-08-06T11:03:45;15.13;;;11.18;;
20441;SDS011;10380;52.102;20.614;2023-08-06T11:06:17;11.40;;;10.20;;
20441;SDS011;10380;52.102;20.614;2023-08-06T11:08:52;13.75;;;10.43;;
20441;SDS011;10380;52.102;20.614;2023-08-06T11:11:23;12.25;;;9.88;;
20441;SDS011;10380;52.102;20.614;2023-08-06T11:13:50;13.27;;;9.75;;
20441;SDS011;10380;52.102;20.614;2023-08-06T11:16:19;14.63;;;8.82;;
20441;SDS011;10380;52.102;20.614;2023-08-06T11:18:51;11.75;;;9.90;;
20441;SDS011;10380;52.102;20.614;2023-08-06T11:21:21;13.40;;;10.20;;
20441;SDS011;10380;52.102;20.614;2023-08-06T11:23:48;11.55;;;8.93;;
20441;SDS011;10380;52.102;20.614;2023-08-06T11:26:19;10.40;;;9.10;;
20441;SDS011;10380;52.102;20.614;2023-08-06T11:28:48;9.95;;;8.95;;
20441;SDS011;10380;52.102;20.614;2023-08-06T11:31:21;10.25;;;8.20;;
20441;SDS011;10380;52.102;20.614;2023-08-06T11:33:52;10.25;;;9.07;;
20441;SDS011;10380;52.102;20.614;2023-08-06T11:36:33;10.20;;;9.20;;
20441;SDS011;10380;52.102;20.614;2023-08-06T11:39:03;8.43;;;7.35;;
20441;SDS011;10380;52.102;20.614;2023-08-06T11:41:33;8.68;;;7.57;;
20441;SDS011;10380;52.102;20.614;2023-08-06T11:44:00;10.15;;;7.55;;
20441;SDS011;10380;52.102;20.614;2023-08-06T11:46:28;7.88;;;7.13;;
20441;SDS011;10380;52.102;20.614;2023-08-06T11:48:56;9.15;;;7.35;;
20441;SDS011;10380;52.102;20.614;2023-08-06T11:51:25;8.98;;;7.22;;
20441;SDS011;10380;52.102;20.614;2023-08-06T11:53:56;7.53;;;6.57;;
20441;SDS011;10380;52.102;20.614;2023-08-06T11:56:26;6.95;;;6.28;;
20441;SDS011;10380;52.102;20.614;2023-08-06T11:58:54;6.78;;;6.18;;
20441;SDS011;10380;52.102;20.614;2023-08-06T12:01:21;9.45;;;6.68;;
20441;SDS011;10380;52.102;20.614;2023-08-06T12:03:48;6.68;;;5.93;;
20441;SDS011;10380;52.102;20.614;2023-08-06T12:06:15;8.38;;;5.88;;
20441;SDS011;10380;52.102;20.614;2023-08-06T12:08:42;7.43;;;5.97;;
20441;SDS011;10380;52.102;20.614;2023-08-06T12:11:10;7.60;;;5.93;;
20441;SDS011;10380;52.102;20.614;2023-08-06T12:13:37;7.53;;;6.03;;
20441;SDS011;10380;52.102;20.614;2023-08-06T12:16:04;7.90;;;5.93;;
20441;SDS011;10380;52.102;20.614;2023-08-06T12:18:31;8.48;;;6.90;;
20441;SDS011;10380;52.102;20.614;2023-08-06T12:20:57;9.82;;;6.22;;
20441;SDS011;10380;52.102;20.614;2023-08-06T12:23:24;8.73;;;6.70;;
20441;SDS011;10380;52.102;20.614;2023-08-06T12:25:51;8.38;;;6.90;;
20441;SDS011;10380;52.102;20.614;2023-08-06T12:28:19;9.73;;;6.70;;
20441;SDS011;10380;52.102;20.614;2023-08-06T12:30:49;7.00;;;6.32;;
20441;SDS011;10380;52.102;20.614;2023-08-06T12:33:17;7.55;;;6.00;;
20441;SDS011;10380;52.102;20.614;2023-08-06T12:35:43;7.78;;;6.93;;
20441;SDS011;10380;52.102;20.614;2023-08-06T12:38:11;7.68;;;4.20;;
20441;SDS011;10380;52.102;20.614;2023-08-06T12:40:38;5.57;;;3.65;;
20441;SDS011;10380;52.102;20.614;2023-08-06T12:43:08;6.75;;;3.95;;
20441;SDS011;10380;52.102;20.614;2023-08-06T12:45:35;6.38;;;3.60;;
20441;SDS011;10380;52.102;20.614;2023-08-06T12:48:04;6.40;;;4.15;;
20441;SDS011;10380;52.102;20.614;2023-08-06T12:50:31;6.75;;;4.10;;
20441;SDS011;10380;52.102;20.614;2023-08-06T12:52:59;8.95;;;4.05;;
20441;SDS011;10380;52.102;20.614;2023-08-06T12:55:27;7.72;;;4.72;;
20441;SDS011;10380;52.102;20.614;2023-08-06T12:57:58;9.23;;;6.43;;
20441;SDS011;10380;52.102;20.614;2023-08-06T13:00:25;6.93;;;5.40;;
20441;SDS011;10380;52.102;20.614;2023-08-06T13:02:53;8.55;;;5.38;;
20441;SDS011;10380;52.102;20.614;2023-08-06T13:05:20;6.53;;;5.32;;
20441;SDS011;10380;52.102;20.614;2023-08-06T13:07:48;6.25;;;5.47;;
20441;SDS011;10380;52.102;20.614;2023-08-06T13:10:15;7.97;;;5.47;;
20441;SDS011;10380;52.102;20.614;2023-08-06T13:12:42;5.15;;;4.65;;
20441;SDS011;10380;52.102;20.614;2023-08-06T13:15:10;6.25;;;4.28;;
20441;SDS011;10380;52.102;20.614;2023-08-06T13:17:37;5.47;;;4.38;;
20441;SDS011;10380;52.102;20.614;2023-08-06T13:20:04;7.43;;;4.80;;
20441;SDS011;10380;52.102;20.614;2023-08-06T13:22:32;4.97;;;4.47;;
20441;SDS011;10380;52.102;20.614;2023-08-06T13:24:59;5.20;;;4.70;;
20441;SDS011;10380;52.102;20.614;2023-08-06T13:27:26;4.43;;;4.03;;
20441;SDS011;10380;52.102;20.614;2023-08-06T13:29:53;7.40;;;4.78;;
20441;SDS011;10380;52.102;20.614;2023-08-06T13:32:20;5.63;;;4.80;;
20441;SDS011;10380;52.102;20.614;2023-08-06T13:34:47;5.63;;;5.13;;
20441;SDS011;10380;52.102;20.614;2023-08-06T13:37:14;6.25;;;5.05;;
20441;SDS011;10380;52.102;20.614;2023-08-06T13:39:41;6.40;;;5.78;;
20441;SDS011;10380;52.102;20.614;2023-08-06T13:42:08;6.93;;;5.40;;
20441;SDS011;10380;52.102;20.614;2023-08-06T13:44:35;6.35;;;4.78;;
20441;SDS011;10380;52.102;20.614;2023-08-06T13:47:03;6.10;;;5.25;;
20441;SDS011;10380;52.102;20.614;2023-08-06T13:49:30;5.90;;;5.40;;
20441;SDS011;10380;52.102;20.614;2023-08-06T13:52:14;6.72;;;5.50;;
20441;SDS011;10380;52.102;20.614;2023-08-06T13:54:48;6.57;;;5.97;;
20441;SDS011;10380;52.102;20.614;2023-08-06T13:57:15;6.28;;;5.68;;
20441;SDS011;10380;52.102;20.614;2023-08-06T13:59:44;7.63;;;5.13;;
20441;SDS011;10380;52.102;20.614;2023-08-06T14:02:11;6.65;;;6.00;;
20441;SDS011;10380;52.102;20.614;2023-08-06T14:04:38;5.30;;;4.80;;
20441;SDS011;10380;52.102;20.614;2023-08-06T14:07:06;5.18;;;4.38;;
20441;SDS011;10380;52.102;20.614;2023-08-06T14:09:33;3.80;;;3.13;;
20441;SDS011;10380;52.102;20.614;2023-08-06T14:12:00;4.13;;;3.25;;
20441;SDS011;10380;52.102;20.614;2023-08-06T14:14:28;3.72;;;2.88;;
20441;SDS011;10380;52.102;20.614;2023-08-06T14:16:55;3.13;;;2.47;;
20441;SDS011;10380;52.102;20.614;2023-08-06T14:19:23;2.75;;;2.45;;
20441;SDS011;10380;52.102;20.614;2023-08-06T14:21:50;2.45;;;1.75;;
20441;SDS011;10380;52.102;20.614;2023-08-06T14:24:17;4.07;;;2.15;;
20441;SDS011;10380;52.102;20.614;2023-08-06T14:26:45;2.28;;;2.08;;
20441;SDS011;10380;52.102;20.614;2023-08-06T14:29:11;5.10;;;2.40;;
20441;SDS011;10380;52.102;20.614;2023-08-06T14:31:40;2.72;;;2.50;;
20441;SDS011;10380;52.102;20.614;2023-08-06T14:34:07;2.40;;;2.08;;